»·PEaware :: WAT463 KONT-KPSP

WAT463 :: KONT-KPSP

FLIGHT INFORMATION

Flight Status: Arrived
Operator:
Walker Air Transport
More flights by this operator :: More flights under this callsign
Pilot: Dan S. (31216)
Aircraft: CESSNA 182 SKYLANE
(C182)
More flights by this aircraft type
Origin: KONT Ontario Intl
United States
Destination: KPSP Palm Springs Intl
United States
More flights between these airports :: More routes between these airports
Route: PDZ V186 NIKKL V64 TRM
File this flight plan on PilotEdge
Remarks:
Altitude:
(Current/Filed)
11,000ft
Speed:
(Current/Filed)
145kts
Departed: 29-Dec-20 12:32 PM
Arrived: 29-Dec-20 01:14 PM
Distance/Time
Traveled:
56nm/0:41
Distance/Time
To Go:
Arrived

Flight Plot

Page will automatically refresh every two minutes.


Map Options




Map Legend


Flown Route
Filed Route
Departure Airport
Arrival Airport
Navaid (VOR, NDB)
Fix

Horizontal Profiles

Position Reports

Time Latitude Longitude Heading Altitude Ground
Speed
29-Dec-20 12:13 34.052852 -117.612270 180 926ft 0kts
29-Dec-20 12:14 34.052852 -117.612270 180 926ft 0kts
29-Dec-20 12:14 34.052852 -117.612270 180 926ft 0kts
29-Dec-20 12:16 34.052846 -117.612270 181 926ft 0kts
29-Dec-20 12:17 34.052846 -117.612270 181 926ft 0kts
29-Dec-20 12:17 34.052846 -117.612270 181 926ft 0kts
29-Dec-20 12:18 34.052846 -117.612270 181 926ft 0kts
29-Dec-20 12:20 34.052846 -117.612270 181 926ft 0kts
29-Dec-20 12:20 34.052846 -117.612270 181 926ft 0kts
29-Dec-20 12:21 34.052838 -117.612338 272 926ft 0kts
29-Dec-20 12:22 34.052933 -117.612635 315 926ft 8kts
29-Dec-20 12:23 34.053847 -117.607807 89 924ft 26kts
29-Dec-20 12:24 34.053847 -117.599243 89 917ft 19kts
29-Dec-20 12:25 34.053861 -117.591429 89 917ft 31kts
29-Dec-20 12:26 34.053856 -117.584311 89 917ft 21kts
29-Dec-20 12:27 34.054050 -117.582563 28 919ft 0kts
29-Dec-20 12:28 34.054050 -117.582563 28 919ft 0kts
29-Dec-20 12:29 34.054050 -117.582563 28 919ft 0kts
29-Dec-20 12:30 34.054955 -117.583216 270 921ft 26kts
29-Dec-20 12:31 34.055504 -117.604660 276 1664ft 69kts
29-Dec-20 12:32 34.053796 -117.628661 274 2497ft 81kts
29-Dec-20 12:33 34.049264 -117.657277 271 3226ft 94kts
29-Dec-20 12:34 34.044314 -117.690610 272 3889ft 105kts
29-Dec-20 12:35 34.023994 -117.711475 141 4612ft 111kts
29-Dec-20 12:36 34.006282 -117.688132 100 5436ft 89kts
29-Dec-20 12:37 33.992565 -117.661656 105 6184ft 95kts
29-Dec-20 12:38 33.977342 -117.634586 108 6897ft 102kts
29-Dec-20 12:39 33.962020 -117.606438 105 7664ft 101kts
29-Dec-20 12:40 33.945503 -117.577965 106 8344ft 105kts
29-Dec-20 12:41 33.928855 -117.548592 115 8968ft 112kts
29-Dec-20 12:42 33.904523 -117.522457 129 9553ft 118kts
29-Dec-20 12:43 33.878573 -117.498067 125 10058ft 119kts
29-Dec-20 12:44 33.851897 -117.473640 126 10589ft 116kts
29-Dec-20 12:45 33.824835 -117.450171 129 10984ft 126kts
29-Dec-20 12:46 33.792607 -117.423220 135 10911ft 152kts
29-Dec-20 12:47 33.757261 -117.396269 136 10979ft 152kts
29-Dec-20 12:48 33.732101 -117.362024 89 10981ft 129kts
29-Dec-20 12:49 33.726950 -117.318595 85 10981ft 132kts
29-Dec-20 12:50 33.723039 -117.274528 85 10980ft 132kts
29-Dec-20 12:51 33.719481 -117.230371 87 10980ft 133kts
29-Dec-20 12:52 33.715775 -117.185560 87 10980ft 135kts
29-Dec-20 12:53 33.712067 -117.140376 87 10980ft 135kts
29-Dec-20 12:54 33.708363 -117.095324 88 10980ft 135kts
29-Dec-20 12:55 33.704670 -117.050103 87 10980ft 135kts
29-Dec-20 12:56 33.700932 -117.004708 87 10980ft 135kts
29-Dec-20 12:57 33.697018 -116.957533 87 10980ft 135kts
29-Dec-20 12:58 33.693237 -116.912406 87 10980ft 135kts
29-Dec-20 12:59 33.689444 -116.867138 87 10971ft 136kts
29-Dec-20 13:00 33.685661 -116.821915 87 10971ft 136kts
29-Dec-20 13:01 33.681810 -116.776406 87 10971ft 137kts
29-Dec-20 13:02 33.677860 -116.730827 85 10996ft 135kts
29-Dec-20 13:03 33.674114 -116.685634 85 10998ft 136kts
29-Dec-20 13:04 33.670085 -116.640355 87 10881ft 140kts
29-Dec-20 13:05 33.686565 -116.599563 51 9538ft 139kts
29-Dec-20 13:06 33.705815 -116.562166 51 8050ft 129kts
29-Dec-20 13:07 33.725207 -116.526459 51 6540ft 128kts
29-Dec-20 13:08 33.745495 -116.491480 51 5029ft 128kts
29-Dec-20 13:09 33.764623 -116.456789 51 3508ft 116kts
29-Dec-20 13:10 33.784079 -116.465984 317 2043ft 88kts
29-Dec-20 13:11 33.802228 -116.483369 331 1104ft 82kts
29-Dec-20 13:12 33.818744 -116.497986 328 510ft 70kts
29-Dec-20 13:13 33.826234 -116.504605 323 417ft 25kts
29-Dec-20 13:14 33.826815 -116.507128 152 421ft 16kts
29-Dec-20 13:15 33.826149 -116.508840 120 424ft 5kts
29-Dec-20 13:16 33.825812 -116.507875 90 421ft 0kts

Navigation Log

Ident Type
Flight plan parsing failed, navigation log unavailable